Time;durP1;ratioP1;P1;durP2;ratioP2;P2;SDS_P1;SDS_P2;PMS_P1;PMS_P2;Temp;Humidity;BMP_temperature;BMP_pressure;BME280_temperature;BME280_humidity;BME280_pressure;Samples;Min_cycle;Max_cycle;Signal;HPM_P1;HPM_P2
2022/01/26 00:07:11;;;;;;;73.27;36.73;;;;;;;;;;4418278;32;20236;-53
2022/01/26 00:09:36;;;;;;;79.20;41.37;;;;;;;;;;4418174;32;20229;-54
2022/01/26 00:12:02;;;;;;;119.90;51.87;;;;;;;;;;4433197;32;20356;-53
2022/01/26 00:14:28;;;;;;;125.20;54.03;;;;;;;;;;4433321;32;20319;-52
2022/01/26 00:16:53;;;;;;;118.60;49.53;;;;;;;;;;4433552;32;20225;-54
2022/01/26 00:19:26;;;;;;;113.80;51.67;;;;;;;;;;4419298;32;20412;-54
2022/01/26 00:21:52;;;;;;;125.10;53.30;;;;;;;;;;4433364;32;20315;-53
2022/01/26 00:29:33;;;;;;;150.93;58.13;;;;;;;;;;4433345;32;20236;-53
2022/01/26 00:42:56;;;;;;;108.83;45.27;;;;;;;;;;4432921;32;20243;-54
2022/01/26 00:45:25;;;;;;;81.47;37.07;;;;;;;;;;4433301;32;20296;-55
2022/01/26 00:47:51;;;;;;;76.23;34.00;;;;;;;;;;4432838;32;20701;-55
2022/01/26 00:50:16;;;;;;;78.67;36.93;;;;;;;;;;4432889;32;20227;-53
2022/01/26 00:52:45;;;;;;;111.23;44.60;;;;;;;;;;4433094;32;20283;-54
2022/01/26 00:55:15;;;;;;;111.90;46.33;;;;;;;;;;4432755;32;20569;-53
2022/01/26 00:57:42;;;;;;;123.47;48.67;;;;;;;;;;4433055;32;20269;-52
2022/01/26 01:00:11;;;;;;;104.83;48.93;;;;;;;;;;4432845;32;20270;-53
2022/01/26 01:02:36;;;;;;;118.93;53.70;;;;;;;;;;4431990;32;20275;-52
2022/01/26 01:05:11;;;;;;;120.53;51.37;;;;;;;;;;4416205;32;20971;-54
2022/01/26 01:07:39;;;;;;;84.27;43.47;;;;;;;;;;4428609;32;20652;-53
2022/01/26 01:10:06;;;;;;;93.47;45.77;;;;;;;;;;4433032;32;20229;-53
2022/01/26 01:12:37;;;;;;;105.13;47.00;;;;;;;;;;4432636;32;20224;-53
2022/01/26 01:15:03;;;;;;;135.27;47.87;;;;;;;;;;4418485;32;20339;-53
2022/01/26 01:17:36;;;;;;;106.13;44.83;;;;;;;;;;4432611;32;20314;-54
2022/01/26 01:20:14;;;;;;;94.90;43.73;;;;;;;;;;4432444;32;20808;-53
2022/01/26 01:30:46;;;;;;;81.03;36.07;;;;;;;;;;4432074;32;20314;-54
2022/01/26 01:33:20;;;;;;;97.43;39.77;;;;;;;;;;4406012;32;20327;-53
2022/01/26 01:35:47;;;;;;;91.90;38.03;;;;;;;;;;4418202;32;20557;-54
2022/01/26 01:38:16;;;;;;;86.23;41.13;;;;;;;;;;4416920;32;20770;-53
2022/01/26 01:40:44;;;;;;;93.73;42.27;;;;;;;;;;4416456;32;20558;-54
2022/01/26 01:43:11;;;;;;;79.93;45.07;;;;;;;;;;4416802;32;21136;-52
2022/01/26 01:45:42;;;;;;;83.23;40.83;;;;;;;;;;4415520;32;20281;-54
2022/01/26 01:48:09;;;;;;;86.77;38.43;;;;;;;;;;4416702;32;20258;-54
2022/01/26 01:50:40;;;;;;;88.63;40.90;;;;;;;;;;4416678;32;20645;-53
2022/01/26 01:53:06;;;;;;;82.20;38.20;;;;;;;;;;4416769;32;20235;-53
2022/01/26 01:55:32;;;;;;;86.17;37.03;;;;;;;;;;4416347;32;20261;-53
2022/01/26 01:57:59;;;;;;;89.33;36.67;;;;;;;;;;4416834;32;20329;-54
2022/01/26 02:00:27;;;;;;;76.53;35.67;;;;;;;;;;4416252;32;20255;-52
2022/01/26 02:02:53;;;;;;;77.77;34.37;;;;;;;;;;4416048;32;20217;-53
2022/01/26 02:05:19;;;;;;;71.13;32.57;;;;;;;;;;4416306;32;20255;-54
2022/01/26 02:07:45;;;;;;;68.97;31.60;;;;;;;;;;4416555;32;20348;-54
2022/01/26 02:10:11;;;;;;;73.40;33.70;;;;;;;;;;4416501;32;20323;-54
2022/01/26 02:12:43;;;;;;;76.83;34.30;;;;;;;;;;4416365;32;20628;-54
2022/01/26 02:15:15;;;;;;;66.53;30.97;;;;;;;;;;4416240;32;20260;-53
2022/01/26 02:55:51;;;;;;;68.53;32.50;;;;;;;;;;4431156;32;20257;-55
2022/01/26 03:03:39;;;;;;;93.20;43.70;;;;;;;;;;4415995;32;20388;-52
2022/01/26 03:06:13;;;;;;;84.23;40.57;;;;;;;;;;4416130;32;20598;-53
2022/01/26 03:08:43;;;;;;;76.23;36.47;;;;;;;;;;4419511;32;20338;-52
2022/01/26 03:11:12;;;;;;;73.93;36.50;;;;;;;;;;4417923;32;20653;-53
2022/01/26 03:13:45;;;;;;;68.13;32.57;;;;;;;;;;4418504;32;20400;-53
2022/01/26 03:16:16;;;;;;;83.80;39.80;;;;;;;;;;4419136;32;20201;-53
2022/01/26 03:19:47;;;;;;;74.33;34.83;;;;;;;;;;4418686;32;20649;-53
2022/01/26 03:21:51;;;;;;;72.80;35.80;;;;;;;;;;4415041;32;20245;-53
2022/01/26 03:29:58;;;;;;;67.67;34.60;;;;;;;;;;4418792;32;20323;-54
2022/01/26 03:34:58;;;;;;;74.17;35.37;;;;;;;;;;4418924;32;20275;-53
2022/01/26 03:37:30;;;;;;;100.40;47.50;;;;;;;;;;4418449;32;20283;-53
2022/01/26 03:39:55;;;;;;;105.43;48.30;;;;;;;;;;4404964;32;20273;-53
2022/01/26 03:42:21;;;;;;;89.37;46.03;;;;;;;;;;4418392;32;20221;-53
2022/01/26 03:44:47;;;;;;;97.57;45.80;;;;;;;;;;4418719;32;20350;-53
2022/01/26 03:47:12;;;;;;;97.83;44.63;;;;;;;;;;4418392;32;20217;-52
2022/01/26 03:49:40;;;;;;;95.50;43.67;;;;;;;;;;4418576;32;20225;-53
2022/01/26 03:52:06;;;;;;;91.17;46.40;;;;;;;;;;4418337;32;20280;-53
2022/01/26 03:54:32;;;;;;;101.00;46.33;;;;;;;;;;4418623;32;20442;-52
2022/01/26 03:56:58;;;;;;;85.20;42.63;;;;;;;;;;4404121;32;20413;-54
2022/01/26 03:59:24;;;;;;;90.57;45.00;;;;;;;;;;4418485;32;20284;-52
2022/01/26 04:01:49;;;;;;;85.03;40.20;;;;;;;;;;4417084;32;20259;-53
2022/01/26 04:04:15;;;;;;;79.07;38.23;;;;;;;;;;4418674;32;20232;-52
2022/01/26 04:06:40;;;;;;;75.53;35.37;;;;;;;;;;4418395;32;20276;-53
2022/01/26 04:09:08;;;;;;;78.87;35.00;;;;;;;;;;4418033;32;20249;-53
2022/01/26 04:14:13;;;;;;;82.03;35.93;;;;;;;;;;4417801;32;20291;-53
2022/01/26 04:16:40;;;;;;;90.30;42.40;;;;;;;;;;4417976;32;20204;-52
2022/01/26 04:19:06;;;;;;;85.07;42.87;;;;;;;;;;4417453;32;20303;-53
2022/01/26 04:22:00;;;;;;;82.13;39.57;;;;;;;;;;4418057;32;20443;-52
2022/01/26 04:27:05;;;;;;;76.97;36.57;;;;;;;;;;4417924;32;20233;-53
2022/01/26 04:29:33;;;;;;;71.87;33.90;;;;;;;;;;4416852;32;20267;-54
2022/01/26 04:32:00;;;;;;;83.53;40.77;;;;;;;;;;4416677;32;20302;-54
2022/01/26 04:34:27;;;;;;;80.37;40.97;;;;;;;;;;4418144;32;20229;-52
2022/01/26 04:36:59;;;;;;;75.53;41.53;;;;;;;;;;4424208;32;20228;-52
2022/01/26 04:39:30;;;;;;;96.37;44.57;;;;;;;;;;4433268;32;20247;-54
2022/01/26 04:42:01;;;;;;;81.93;41.53;;;;;;;;;;4433266;32;20667;-54
2022/01/26 04:44:33;;;;;;;84.37;43.30;;;;;;;;;;4433157;32;20588;-53
2022/01/26 04:46:58;;;;;;;103.73;48.60;;;;;;;;;;4433078;32;20285;-53
2022/01/26 04:49:24;;;;;;;89.37;46.70;;;;;;;;;;4433047;32;20232;-53
2022/01/26 04:51:50;;;;;;;106.73;50.13;;;;;;;;;;4418572;32;20640;-53
2022/01/26 04:54:15;;;;;;;110.33;48.07;;;;;;;;;;4419072;32;20241;-53
2022/01/26 04:56:41;;;;;;;99.20;46.10;;;;;;;;;;4432800;32;20231;-53
2022/01/26 04:59:07;;;;;;;93.67;46.57;;;;;;;;;;4433060;32;20574;-52
2022/01/26 05:01:33;;;;;;;88.27;44.47;;;;;;;;;;4433141;32;20270;-53
2022/01/26 05:03:58;;;;;;;101.43;48.00;;;;;;;;;;4417868;32;20260;-53
2022/01/26 05:06:24;;;;;;;94.80;45.93;;;;;;;;;;4417062;32;20287;-53
2022/01/26 05:08:49;;;;;;;92.40;46.90;;;;;;;;;;4417455;32;20229;-52
2022/01/26 05:11:23;;;;;;;95.57;46.80;;;;;;;;;;4417187;32;20251;-52
2022/01/26 05:13:48;;;;;;;76.97;38.73;;;;;;;;;;4416957;32;20421;-54
2022/01/26 05:16:13;;;;;;;79.53;39.93;;;;;;;;;;4417109;32;20325;-53
2022/01/26 05:18:39;;;;;;;89.97;40.20;;;;;;;;;;4417585;32;20298;-54
2022/01/26 05:21:04;;;;;;;87.33;42.63;;;;;;;;;;4416806;32;20366;-54
2022/01/26 05:23:30;;;;;;;75.47;37.50;;;;;;;;;;4415861;32;20331;-53
2022/01/26 05:25:55;;;;;;;76.93;36.33;;;;;;;;;;4416982;32;20228;-53
2022/01/26 05:28:21;;;;;;;74.07;36.40;;;;;;;;;;4403468;32;20254;-54
2022/01/26 05:30:46;;;;;;;81.63;33.40;;;;;;;;;;4416249;32;20246;-52
2022/01/26 05:33:12;;;;;;;90.33;41.47;;;;;;;;;;4416913;32;20347;-53
2022/01/26 05:35:37;;;;;;;116.93;49.60;;;;;;;;;;4417013;32;20596;-53
2022/01/26 05:38:03;;;;;;;110.17;49.77;;;;;;;;;;4416013;32;20296;-53
2022/01/26 05:40:29;;;;;;;109.60;50.30;;;;;;;;;;4416054;32;20629;-53
2022/01/26 05:42:54;;;;;;;107.37;55.23;;;;;;;;;;4416057;32;20326;-54
2022/01/26 05:45:32;;;;;;;107.17;52.67;;;;;;;;;;4416429;32;20370;-53
2022/01/26 05:48:01;;;;;;;127.43;49.70;;;;;;;;;;4416831;32;20193;-52
2022/01/26 05:50:27;;;;;;;104.57;48.00;;;;;;;;;;4416461;32;20274;-52
2022/01/26 05:52:52;;;;;;;89.57;42.97;;;;;;;;;;4414895;32;20641;-52
2022/01/26 05:55:18;;;;;;;94.23;41.63;;;;;;;;;;4402504;32;20316;-53
2022/01/26 05:57:43;;;;;;;85.73;41.00;;;;;;;;;;4402409;32;20308;-53
2022/01/26 06:00:09;;;;;;;99.57;45.10;;;;;;;;;;4416292;32;20274;-52
2022/01/26 06:02:35;;;;;;;87.73;41.40;;;;;;;;;;4416000;32;20663;-54
2022/01/26 06:05:01;;;;;;;82.70;40.60;;;;;;;;;;4415840;32;20245;-54
2022/01/26 06:07:26;;;;;;;81.50;38.80;;;;;;;;;;4414536;32;20574;-53
2022/01/26 06:09:52;;;;;;;66.33;36.70;;;;;;;;;;4414791;32;20508;-53
2022/01/26 06:12:17;;;;;;;70.40;36.43;;;;;;;;;;4428011;32;20251;-53
2022/01/26 06:14:42;;;;;;;78.87;37.70;;;;;;;;;;4429662;32;20278;-54
2022/01/26 06:17:08;;;;;;;92.63;42.37;;;;;;;;;;4430744;32;20273;-54
2022/01/26 06:19:34;;;;;;;105.70;46.40;;;;;;;;;;4417474;32;20241;-54
2022/01/26 06:21:59;;;;;;;100.40;47.30;;;;;;;;;;4431531;32;20612;-53
2022/01/26 06:24:25;;;;;;;94.57;47.43;;;;;;;;;;4431570;32;20565;-53
2022/01/26 06:26:50;;;;;;;91.17;46.60;;;;;;;;;;4431240;32;20236;-54
2022/01/26 06:29:16;;;;;;;86.93;44.33;;;;;;;;;;4431453;32;20240;-53
2022/01/26 06:31:43;;;;;;;93.37;45.87;;;;;;;;;;4431612;32;20684;-54
2022/01/26 06:34:12;;;;;;;108.70;47.90;;;;;;;;;;4417500;32;20368;-53
2022/01/26 06:36:44;;;;;;;96.30;45.73;;;;;;;;;;4431052;32;20621;-53
2022/01/26 06:39:11;;;;;;;82.73;42.20;;;;;;;;;;4415348;32;20240;-53
2022/01/26 06:41:37;;;;;;;77.33;40.87;;;;;;;;;;4429489;32;20204;-54
2022/01/26 06:44:15;;;;;;;98.67;46.63;;;;;;;;;;4429263;32;20512;-53
2022/01/26 06:49:29;;;;;;;72.87;39.47;;;;;;;;;;4397423;32;20331;-54
2022/01/26 06:51:55;;;;;;;88.43;45.27;;;;;;;;;;4416103;32;20673;-53
2022/01/26 06:54:22;;;;;;;74.47;42.93;;;;;;;;;;4416348;32;20282;-54
2022/01/26 06:56:48;;;;;;;72.00;36.93;;;;;;;;;;4430379;32;20275;-53
2022/01/26 06:59:14;;;;;;;83.57;41.50;;;;;;;;;;4416908;32;20294;-54
2022/01/26 07:01:40;;;;;;;71.60;38.20;;;;;;;;;;4431058;32;20247;-54
2022/01/26 07:04:06;;;;;;;72.40;38.17;;;;;;;;;;4419981;32;20236;-53
2022/01/26 07:06:31;;;;;;;93.40;41.37;;;;;;;;;;4416106;32;20411;-53
2022/01/26 07:08:57;;;;;;;71.60;38.80;;;;;;;;;;4404175;32;20269;-53
2022/01/26 07:11:23;;;;;;;91.43;44.50;;;;;;;;;;4430698;32;20429;-53
2022/01/26 07:13:51;;;;;;;105.87;48.77;;;;;;;;;;4430326;32;20288;-54
2022/01/26 07:21:45;;;;;;;89.00;45.73;;;;;;;;;;4431347;32;20316;-54
2022/01/26 07:24:10;;;;;;;90.97;39.37;;;;;;;;;;4430606;32;20278;-53
2022/01/26 07:26:37;;;;;;;78.70;40.97;;;;;;;;;;4430666;32;20213;-54
2022/01/26 07:29:07;;;;;;;87.80;43.43;;;;;;;;;;4430832;32;20328;-53
2022/01/26 07:31:35;;;;;;;100.83;47.73;;;;;;;;;;4430689;32;20275;-53
2022/01/26 07:34:01;;;;;;;80.60;40.23;;;;;;;;;;4430708;32;20237;-54
2022/01/26 07:36:26;;;;;;;97.73;42.97;;;;;;;;;;4430785;32;20221;-53
2022/01/26 07:38:54;;;;;;;110.40;51.43;;;;;;;;;;4431084;32;20359;-54
2022/01/26 07:41:21;;;;;;;94.53;49.10;;;;;;;;;;4430886;32;20247;-55
2022/01/26 07:43:47;;;;;;;128.03;57.67;;;;;;;;;;4430523;32;20626;-54
2022/01/26 07:46:13;;;;;;;119.20;54.70;;;;;;;;;;4416631;32;20777;-54
2022/01/26 07:48:39;;;;;;;107.43;49.53;;;;;;;;;;4416859;32;20396;-55
2022/01/26 07:51:05;;;;;;;115.40;52.13;;;;;;;;;;4430248;32;20351;-54
2022/01/26 07:53:32;;;;;;;130.17;57.20;;;;;;;;;;4430589;32;20258;-53
2022/01/26 07:55:58;;;;;;;152.77;62.10;;;;;;;;;;4418247;32;20228;-55
2022/01/26 07:58:25;;;;;;;115.50;57.17;;;;;;;;;;4432884;32;20317;-54
2022/01/26 08:00:50;;;;;;;114.90;55.30;;;;;;;;;;4432798;32;20291;-52
2022/01/26 08:03:17;;;;;;;119.60;58.10;;;;;;;;;;4431082;32;20299;-52
2022/01/26 08:05:43;;;;;;;107.87;53.27;;;;;;;;;;4432661;32;20233;-53
2022/01/26 08:08:08;;;;;;;128.30;58.03;;;;;;;;;;4418468;32;20462;-54
2022/01/26 08:10:34;;;;;;;118.47;54.53;;;;;;;;;;4430269;32;20229;-52
2022/01/26 08:13:00;;;;;;;108.67;53.13;;;;;;;;;;4417687;32;20326;-53
2022/01/26 08:15:26;;;;;;;97.50;50.80;;;;;;;;;;4417503;32;20639;-54
2022/01/26 08:17:52;;;;;;;113.87;54.83;;;;;;;;;;4417532;32;20316;-52
2022/01/26 08:20:17;;;;;;;115.43;59.00;;;;;;;;;;4417395;32;20638;-52
2022/01/26 08:22:43;;;;;;;101.90;53.53;;;;;;;;;;4417524;32;20715;-54
2022/01/26 08:25:10;;;;;;;113.43;55.23;;;;;;;;;;4416931;32;20251;-53
2022/01/26 08:27:42;;;;;;;115.87;55.40;;;;;;;;;;4417124;32;20232;-54
2022/01/26 08:30:12;;;;;;;110.90;58.53;;;;;;;;;;4417196;32;20233;-53
2022/01/26 08:32:38;;;;;;;118.37;54.43;;;;;;;;;;4417348;32;20243;-53
2022/01/26 08:35:04;;;;;;;113.00;56.90;;;;;;;;;;4416774;32;20614;-53
2022/01/26 08:37:29;;;;;;;145.20;59.23;;;;;;;;;;4416913;32;20350;-55
2022/01/26 08:39:55;;;;;;;117.33;52.03;;;;;;;;;;4417470;32;20271;-54
2022/01/26 08:42:21;;;;;;;112.90;52.43;;;;;;;;;;4417170;32;20233;-54
2022/01/26 08:44:46;;;;;;;119.93;57.27;;;;;;;;;;4416990;32;20237;-54
2022/01/26 08:47:12;;;;;;;107.03;48.00;;;;;;;;;;4416690;32;20279;-54
2022/01/26 08:49:37;;;;;;;91.90;40.83;;;;;;;;;;4416586;32;20262;-54
2022/01/26 08:52:03;;;;;;;90.47;44.83;;;;;;;;;;4416512;32;20627;-54
2022/01/26 08:54:29;;;;;;;91.73;44.23;;;;;;;;;;4415465;32;20237;-54
2022/01/26 08:56:55;;;;;;;81.53;39.87;;;;;;;;;;4402327;32;20229;-55
2022/01/26 08:59:23;;;;;;;91.13;45.00;;;;;;;;;;4419487;32;20276;-53
2022/01/26 09:01:49;;;;;;;85.13;46.37;;;;;;;;;;4432151;32;20220;-54
2022/01/26 09:04:16;;;;;;;75.10;40.47;;;;;;;;;;4420328;32;20261;-54
2022/01/26 09:06:55;;;;;;;66.70;35.53;;;;;;;;;;4416946;32;20255;-53
2022/01/26 09:09:22;;;;;;;78.63;43.17;;;;;;;;;;4416965;32;20626;-54
2022/01/26 09:11:53;;;;;;;109.80;51.17;;;;;;;;;;4426836;32;20517;-53
2022/01/26 09:14:22;;;;;;;96.67;44.17;;;;;;;;;;4431917;32;20287;-55
2022/01/26 09:16:51;;;;;;;102.63;44.77;;;;;;;;;;4432150;32;20290;-54
2022/01/26 09:19:27;;;;;;;52.33;30.93;;;;;;;;;;4432183;32;20331;-53
2022/01/26 09:21:54;;;;;;;65.63;34.57;;;;;;;;;;4432419;32;20283;-54
2022/01/26 09:24:20;;;;;;;100.17;42.03;;;;;;;;;;4432329;32;20312;-54
2022/01/26 09:26:46;;;;;;;75.57;35.13;;;;;;;;;;4418212;32;20233;-54
2022/01/26 09:29:12;;;;;;;80.20;34.43;;;;;;;;;;4432209;32;20339;-55
2022/01/26 09:31:38;;;;;;;71.50;39.07;;;;;;;;;;4417928;32;20700;-54
2022/01/26 09:34:03;;;;;;;64.27;36.93;;;;;;;;;;4432001;32;20707;-54
2022/01/26 09:36:30;;;;;;;72.40;39.67;;;;;;;;;;4417806;32;20297;-53
2022/01/26 09:38:56;;;;;;;68.77;36.03;;;;;;;;;;4432129;32;20225;-54
2022/01/26 09:41:23;;;;;;;88.73;41.27;;;;;;;;;;4431766;32;20728;-53
2022/01/26 09:43:49;;;;;;;101.60;50.50;;;;;;;;;;4431885;32;20232;-52
2022/01/26 09:46:14;;;;;;;114.17;54.13;;;;;;;;;;4430931;32;20290;-52
2022/01/26 09:48:42;;;;;;;126.83;61.10;;;;;;;;;;4431364;32;20224;-53
2022/01/26 09:51:12;;;;;;;112.80;58.20;;;;;;;;;;4431571;32;20278;-53
2022/01/26 09:53:37;;;;;;;108.13;55.90;;;;;;;;;;4431753;32;20257;-53
2022/01/26 09:56:03;;;;;;;113.57;53.57;;;;;;;;;;4424495;32;20284;-54
2022/01/26 09:58:29;;;;;;;114.07;54.77;;;;;;;;;;4415785;32;20290;-54
2022/01/26 10:00:59;;;;;;;114.50;54.30;;;;;;;;;;4415558;32;20208;-55
2022/01/26 10:03:33;;;;;;;99.27;55.70;;;;;;;;;;4415975;32;20319;-53
2022/01/26 10:05:59;;;;;;;97.30;53.00;;;;;;;;;;4415910;32;20298;-54
2022/01/26 10:09:38;;;;;;;110.27;54.23;;;;;;;;;;4416442;32;20241;-52
2022/01/26 10:19:54;;;;;;;102.60;50.83;;;;;;;;;;4416191;32;20542;-54
2022/01/26 10:22:30;;;;;;;131.27;58.27;;;;;;;;;;4415675;32;20262;-53
2022/01/26 10:25:18;;;;;;;230.40;94.60;;;;;;;;;;4416267;32;20233;-54
2022/01/26 10:27:49;;;;;;;88.00;38.47;;;;;;;;;;4416670;32;20275;-55
2022/01/26 10:30:17;;;;;;;127.63;53.20;;;;;;;;;;4416384;32;20245;-54
2022/01/26 10:32:48;;;;;;;76.77;39.27;;;;;;;;;;4415983;32;20201;-53
2022/01/26 10:35:15;;;;;;;76.10;35.73;;;;;;;;;;4402708;32;20372;-53
2022/01/26 10:37:56;;;;;;;62.80;32.17;;;;;;;;;;4415703;32;20213;-54
2022/01/26 10:40:25;;;;;;;63.47;30.30;;;;;;;;;;4415904;32;20267;-54
2022/01/26 10:43:05;;;;;;;59.60;32.57;;;;;;;;;;4415756;32;20225;-54
2022/01/26 10:45:39;;;;;;;59.40;30.77;;;;;;;;;;4415507;32;20416;-52
2022/01/26 10:48:22;;;;;;;72.23;31.20;;;;;;;;;;4415638;32;20245;-53
2022/01/26 10:51:32;;;;;;;57.83;31.90;;;;;;;;;;4415429;32;20213;-54
2022/01/26 10:53:40;;;;;;;73.13;31.67;;;;;;;;;;4426101;32;20264;-53
2022/01/26 10:56:06;;;;;;;67.63;34.83;;;;;;;;;;4429219;32;20268;-56
2022/01/26 10:58:33;;;;;;;62.27;33.40;;;;;;;;;;4430857;32;20586;-54
2022/01/26 11:00:58;;;;;;;74.00;36.63;;;;;;;;;;4431118;32;20561;-53
2022/01/26 11:03:24;;;;;;;82.97;36.47;;;;;;;;;;4423904;32;20232;-56
2022/01/26 11:05:50;;;;;;;68.23;38.43;;;;;;;;;;4414564;32;20306;-55
2022/01/26 11:08:17;;;;;;;81.13;37.90;;;;;;;;;;4414883;32;20289;-54
2022/01/26 11:10:47;;;;;;;86.87;38.57;;;;;;;;;;4418886;32;20308;-54
2022/01/26 11:13:27;;;;;;;86.70;40.73;;;;;;;;;;4430327;32;20737;-53
2022/01/26 11:15:53;;;;;;;73.40;37.37;;;;;;;;;;4430317;32;20410;-54
2022/01/26 11:18:22;;;;;;;77.10;36.47;;;;;;;;;;4429990;32;20408;-54
2022/01/26 11:20:52;;;;;;;78.13;38.30;;;;;;;;;;4430918;32;20239;-54
2022/01/26 11:23:40;;;;;;;67.30;35.47;;;;;;;;;;4430665;32;20631;-54
2022/01/26 11:26:06;;;;;;;88.70;41.63;;;;;;;;;;4430636;32;20241;-54
2022/01/26 11:28:32;;;;;;;115.70;56.23;;;;;;;;;;4431945;32;20300;-53
2022/01/26 11:31:04;;;;;;;124.53;59.17;;;;;;;;;;4419685;32;20289;-56
2022/01/26 11:33:33;;;;;;;125.80;65.07;;;;;;;;;;4433906;32;20263;-54
2022/01/26 11:36:00;;;;;;;106.67;56.07;;;;;;;;;;4433813;32;20217;-54
2022/01/26 11:47:09;;;;;;;117.63;61.60;;;;;;;;;;4433366;32;20228;-54
2022/01/26 11:49:37;;;;;;;123.93;63.80;;;;;;;;;;4433210;32;20700;-56
2022/01/26 11:52:04;;;;;;;120.73;59.60;;;;;;;;;;4433323;32;20303;-55
2022/01/26 11:54:49;;;;;;;140.83;63.67;;;;;;;;;;4419116;32;20676;-53
2022/01/26 11:57:17;;;;;;;116.57;61.60;;;;;;;;;;4433347;32;20290;-54
2022/01/26 11:59:51;;;;;;;140.43;62.30;;;;;;;;;;4419933;32;20224;-53
2022/01/26 12:02:39;;;;;;;160.70;71.27;;;;;;;;;;4434260;32;20649;-53
2022/01/26 12:05:10;;;;;;;141.87;67.87;;;;;;;;;;4417842;32;20251;-53
2022/01/26 12:07:48;;;;;;;124.17;65.83;;;;;;;;;;4418349;32;20239;-53
2022/01/26 12:10:29;;;;;;;190.07;88.10;;;;;;;;;;4417889;32;20277;-53
2022/01/26 12:13:05;;;;;;;144.23;73.93;;;;;;;;;;4417937;32;20223;-53
2022/01/26 12:15:41;;;;;;;154.03;71.13;;;;;;;;;;4418376;32;20231;-53
2022/01/26 12:35:07;;;;;;;143.37;70.90;;;;;;;;;;4418002;32;20306;-54
2022/01/26 12:37:53;;;;;;;153.00;70.83;;;;;;;;;;4404305;32;20357;-54
2022/01/26 12:43:40;;;;;;;148.47;73.43;;;;;;;;;;4413968;32;20271;-54
2022/01/26 12:46:09;;;;;;;260.13;108.47;;;;;;;;;;4431492;32;20251;-55
2022/01/26 12:48:39;;;;;;;223.13;95.87;;;;;;;;;;4433103;32;20545;-53
2022/01/26 12:51:06;;;;;;;178.77;81.93;;;;;;;;;;4433228;32;20344;-54
2022/01/26 12:53:35;;;;;;;166.30;77.23;;;;;;;;;;4433377;32;20272;-54
2022/01/26 12:56:03;;;;;;;132.57;67.90;;;;;;;;;;4419000;32;20265;-54
2022/01/26 12:58:31;;;;;;;203.77;96.33;;;;;;;;;;4432996;32;20301;-53
2022/01/26 13:01:14;;;;;;;156.17;83.20;;;;;;;;;;4419089;32;20245;-54
2022/01/26 13:03:41;;;;;;;210.50;98.73;;;;;;;;;;4425178;32;20220;-54
2022/01/26 13:06:11;;;;;;;177.87;89.53;;;;;;;;;;4416303;32;20234;-53
2022/01/26 13:08:54;;;;;;;188.40;92.60;;;;;;;;;;4418063;32;20904;-54
2022/01/26 13:11:34;;;;;;;163.17;88.73;;;;;;;;;;4424868;32;20247;-53
2022/01/26 13:14:10;;;;;;;158.13;78.07;;;;;;;;;;4432719;32;20337;-55
2022/01/26 13:16:38;;;;;;;158.67;75.73;;;;;;;;;;4419139;32;20232;-54
2022/01/26 13:19:18;;;;;;;159.07;80.83;;;;;;;;;;4432833;32;20614;-56
2022/01/26 13:33:15;;;;;;;154.57;80.73;;;;;;;;;;4432577;32;20572;-53
2022/01/26 13:41:31;;;;;;;213.77;93.87;;;;;;;;;;4418117;32;20257;-54
2022/01/26 13:49:24;;;;;;;213.63;104.03;;;;;;;;;;4432076;32;20229;-53
2022/01/26 13:59:22;;;;;;;163.60;69.93;;;;;;;;;;4432205;32;20289;-53
2022/01/26 14:01:49;;;;;;;129.67;70.73;;;;;;;;;;4432104;32;20220;-53
2022/01/26 14:04:16;;;;;;;147.70;69.70;;;;;;;;;;4420628;32;20315;-54
2022/01/26 14:06:43;;;;;;;158.90;76.30;;;;;;;;;;4416880;32;20201;-54
2022/01/26 14:09:09;;;;;;;184.60;93.77;;;;;;;;;;4416743;32;20259;-53
2022/01/26 14:11:34;;;;;;;148.80;77.53;;;;;;;;;;4416451;32;20221;-54
2022/01/26 14:14:01;;;;;;;162.43;76.17;;;;;;;;;;4416446;32;20737;-53
2022/01/26 14:16:32;;;;;;;152.50;70.30;;;;;;;;;;4416722;32;20313;-53
2022/01/26 14:26:31;;;;;;;160.27;76.87;;;;;;;;;;4416462;32;20205;-54
2022/01/26 14:28:57;;;;;;;177.53;81.33;;;;;;;;;;4416788;32;20253;-53
2022/01/26 14:31:50;;;;;;;182.47;85.40;;;;;;;;;;4416494;32;20291;-54
2022/01/26 14:35:09;;;;;;;236.33;100.50;;;;;;;;;;4416484;32;20297;-55
2022/01/26 14:51:15;;;;;;;201.50;92.73;;;;;;;;;;4417676;32;20268;-54
2022/01/26 15:48:43;;;;;;;311.70;145.40;;;;;;;;;;4425869;32;20331;-54
2022/01/26 15:51:12;;;;;;;286.37;139.93;;;;;;;;;;4434065;32;20313;-52
2022/01/26 15:59:06;;;;;;;309.27;150.70;;;;;;;;;;4434060;32;20426;-54
2022/01/26 16:04:47;;;;;;;311.97;151.47;;;;;;;;;;4422150;32;20289;-53
2022/01/26 16:07:39;;;;;;;266.03;129.33;;;;;;;;;;4418583;32;20804;-54
2022/01/26 16:21:19;;;;;;;292.27;135.20;;;;;;;;;;4418462;32;20266;-53
2022/01/26 18:33:19;;;;;;;231.67;111.67;;;;;;;;;;4416525;32;20298;-54
2022/01/26 18:38:57;;;;;;;250.27;123.13;;;;;;;;;;4416063;32;20255;-53
2022/01/26 18:51:38;;;;;;;174.17;88.90;;;;;;;;;;4416318;32;20344;-52
2022/01/26 18:54:05;;;;;;;164.13;85.63;;;;;;;;;;4416683;32;20213;-54
2022/01/26 18:56:31;;;;;;;196.27;91.53;;;;;;;;;;4402561;32;20326;-52
2022/01/26 18:58:57;;;;;;;172.00;84.37;;;;;;;;;;4416524;32;20584;-54
2022/01/26 19:01:23;;;;;;;153.67;80.10;;;;;;;;;;4416163;32;20352;-52
2022/01/26 19:03:49;;;;;;;144.20;73.63;;;;;;;;;;4415994;32;20363;-54
2022/01/26 19:06:14;;;;;;;141.60;70.60;;;;;;;;;;4414831;32;20564;-53
2022/01/26 19:08:41;;;;;;;137.50;71.80;;;;;;;;;;4416603;32;20268;-54
2022/01/26 19:11:09;;;;;;;153.07;75.23;;;;;;;;;;4419147;32;20212;-53
2022/01/26 19:13:34;;;;;;;164.93;85.67;;;;;;;;;;4431384;32;20240;-53
2022/01/26 19:16:07;;;;;;;168.93;83.93;;;;;;;;;;4421077;32;20401;-54
2022/01/26 19:26:13;;;;;;;247.63;106.83;;;;;;;;;;4416230;32;20262;-54
2022/01/26 19:28:44;;;;;;;200.10;95.13;;;;;;;;;;4416287;32;20300;-53
2022/01/26 19:51:00;;;;;;;232.13;115.77;;;;;;;;;;4417609;32;20312;-54
2022/01/26 19:53:00;;;;;;;247.17;119.80;;;;;;;;;;4407828;32;20308;-55
2022/01/26 19:55:26;;;;;;;268.30;131.10;;;;;;;;;;4419046;32;20281;-55
2022/01/26 19:57:52;;;;;;;294.50;138.40;;;;;;;;;;4418622;32;20450;-54
2022/01/26 20:00:18;;;;;;;297.73;146.17;;;;;;;;;;4418538;32;20303;-52
2022/01/26 20:02:44;;;;;;;265.80;133.23;;;;;;;;;;4417705;32;20283;-54
2022/01/26 20:05:16;;;;;;;248.87;123.23;;;;;;;;;;4418690;32;20237;-53
2022/01/26 20:07:45;;;;;;;240.40;117.40;;;;;;;;;;4423785;32;20605;-55
2022/01/26 20:10:13;;;;;;;227.77;113.90;;;;;;;;;;4433738;32;20232;-53
2022/01/26 20:12:48;;;;;;;228.40;117.30;;;;;;;;;;4434300;32;20264;-54
2022/01/26 20:15:15;;;;;;;257.20;129.70;;;;;;;;;;4428060;32;20620;-55
2022/01/26 20:17:43;;;;;;;265.50;125.70;;;;;;;;;;4417439;32;20301;-54
2022/01/26 20:20:12;;;;;;;289.93;133.07;;;;;;;;;;4418501;32;20290;-54
2022/01/26 20:22:39;;;;;;;280.57;129.07;;;;;;;;;;4418450;32;20208;-54
2022/01/26 20:25:05;;;;;;;261.87;125.33;;;;;;;;;;4418844;32;20702;-55
2022/01/26 20:27:30;;;;;;;279.17;133.93;;;;;;;;;;4417078;32;20331;-54
2022/01/26 20:30:10;;;;;;;273.37;135.93;;;;;;;;;;4406521;32;20256;-54
2022/01/26 20:32:35;;;;;;;283.87;138.07;;;;;;;;;;4418871;32;20231;-53
2022/01/26 20:35:05;;;;;;;264.00;130.33;;;;;;;;;;4404576;32;20237;-54
2022/01/26 20:37:30;;;;;;;274.53;134.73;;;;;;;;;;4417991;32;20288;-55
2022/01/26 20:39:56;;;;;;;266.97;134.90;;;;;;;;;;4418512;32;20320;-53
2022/01/26 20:42:22;;;;;;;297.57;146.17;;;;;;;;;;4404106;32;20240;-55
2022/01/26 20:44:48;;;;;;;307.53;150.17;;;;;;;;;;4404431;32;20354;-53
2022/01/26 20:47:13;;;;;;;328.17;154.67;;;;;;;;;;4418156;32;20241;-54
2022/01/26 20:49:39;;;;;;;341.00;158.20;;;;;;;;;;4418516;32;20339;-54
2022/01/26 20:52:05;;;;;;;343.00;161.73;;;;;;;;;;4417785;32;20235;-55
2022/01/26 20:54:31;;;;;;;357.40;165.73;;;;;;;;;;4417886;32;20255;-54
2022/01/26 20:56:57;;;;;;;320.37;149.63;;;;;;;;;;4417875;32;20300;-53
2022/01/26 20:59:22;;;;;;;348.77;158.33;;;;;;;;;;4418007;32;20303;-54
2022/01/26 21:01:48;;;;;;;335.33;157.37;;;;;;;;;;4419380;32;20247;-53
2022/01/26 21:04:13;;;;;;;315.40;156.00;;;;;;;;;;4427164;32;20251;-53
2022/01/26 21:06:40;;;;;;;348.47;162.23;;;;;;;;;;4431898;32;20693;-53
2022/01/26 21:09:06;;;;;;;350.17;160.27;;;;;;;;;;4432421;32;20267;-54
2022/01/26 21:11:31;;;;;;;353.63;164.73;;;;;;;;;;4432952;32;20341;-54
2022/01/26 21:13:57;;;;;;;351.07;161.07;;;;;;;;;;4432409;32;20278;-54
2022/01/26 21:16:24;;;;;;;336.83;155.90;;;;;;;;;;4419839;32;20292;-54
2022/01/26 21:18:52;;;;;;;322.80;154.57;;;;;;;;;;4403991;32;20703;-53
2022/01/26 21:21:17;;;;;;;344.80;163.10;;;;;;;;;;4417428;32;20208;-54
2022/01/26 21:23:43;;;;;;;335.07;166.03;;;;;;;;;;4416307;32;20410;-53
2022/01/26 21:26:08;;;;;;;350.63;156.03;;;;;;;;;;4417332;32;20232;-55